Time;durP1;ratioP1;P1;durP2;ratioP2;P2;SDS_P1;SDS_P2;PMS_P1;PMS_P2;Temp;Humidity;BMP_temperature;BMP_pressure;BME280_temperature;BME280_humidity;BME280_pressure;Samples;Min_cycle;Max_cycle;Signal;HPM_P1;HPM_P2
2023/01/16 00:00:20;;;;;;;3.45;1.13;;;;;11.90;99351.00;;;;5057888;28;20199;-75
2023/01/16 00:02:47;;;;;;;2.40;0.68;;;;;11.90;99348.00;;;;5054125;28;20291;-75
2023/01/16 00:05:14;;;;;;;2.72;1.30;;;;;11.90;99351.00;;;;5045216;28;20199;-75
2023/01/16 00:07:41;;;;;;;1.33;1.05;;;;;11.90;99347.00;;;;5045756;28;20215;-75
2023/01/16 00:10:10;;;;;;;2.00;0.90;;;;;11.90;99327.00;;;;5049556;28;20196;-75
2023/01/16 00:12:38;;;;;;;1.42;1.15;;;;;11.80;99324.00;;;;5044377;28;20196;-75
2023/01/16 00:15:06;;;;;;;2.20;1.20;;;;;11.90;99329.00;;;;5046905;28;20230;-75
2023/01/16 00:17:34;;;;;;;3.25;1.20;;;;;11.80;99327.00;;;;5044639;28;20695;-75
2023/01/16 00:20:01;;;;;;;1.70;1.30;;;;;11.80;99327.00;;;;5042926;28;20555;-75
2023/01/16 00:22:28;;;;;;;1.40;1.17;;;;;11.80;99319.00;;;;5046301;28;20203;-75
2023/01/16 00:24:55;;;;;;;1.90;1.25;;;;;11.80;99319.00;;;;5042988;28;20199;-75
2023/01/16 00:27:23;;;;;;;3.17;1.35;;;;;11.80;99312.00;;;;5045483;28;20202;-75
2023/01/16 00:29:51;;;;;;;1.83;1.35;;;;;11.70;99299.00;;;;5045820;28;20207;-75
2023/01/16 00:32:18;;;;;;;1.27;1.08;;;;;11.70;99300.00;;;;5054341;28;20202;-75
2023/01/16 00:34:46;;;;;;;1.98;1.55;;;;;11.70;99294.00;;;;5050634;28;20196;-75
2023/01/16 00:37:13;;;;;;;3.72;1.67;;;;;11.70;99287.00;;;;5061683;28;20206;-76
2023/01/16 00:39:40;;;;;;;1.55;1.33;;;;;11.70;99279.00;;;;5043623;28;20219;-75
2023/01/16 00:42:08;;;;;;;2.30;2.00;;;;;11.70;99282.00;;;;5046005;28;20202;-75
2023/01/16 00:44:36;;;;;;;1.65;1.50;;;;;11.70;99272.00;;;;5047514;28;20200;-74
2023/01/16 00:47:05;;;;;;;2.55;2.10;;;;;11.70;99273.00;;;;5049322;28;20231;-75
2023/01/16 00:49:33;;;;;;;2.55;2.10;;;;;11.70;99272.00;;;;5044740;28;20203;-75
2023/01/16 00:52:00;;;;;;;4.82;2.78;;;;;11.70;99272.00;;;;5045490;28;20793;-75
2023/01/16 00:54:27;;;;;;;3.40;2.28;;;;;11.70;99263.00;;;;5045971;28;20199;-74
2023/01/16 00:56:54;;;;;;;3.55;2.78;;;;;11.60;99251.00;;;;5046088;28;20226;-75
2023/01/16 00:59:22;;;;;;;3.95;2.42;;;;;11.60;99248.00;;;;5045244;28;20206;-75
2023/01/16 01:01:49;;;;;;;2.30;2.10;;;;;11.60;99244.00;;;;5044151;28;20188;-75
2023/01/16 01:04:18;;;;;;;6.28;2.70;;;;;11.60;99241.00;;;;5041696;28;20553;-75
2023/01/16 01:06:45;;;;;;;5.05;3.15;;;;;11.60;99240.00;;;;5042680;28;20601;-75
2023/01/16 01:09:12;;;;;;;4.80;3.22;;;;;11.60;99241.00;;;;5047540;28;20199;-75
2023/01/16 01:11:39;;;;;;;2.83;2.50;;;;;11.60;99235.00;;;;5041979;28;20203;-75
2023/01/16 01:14:07;;;;;;;4.20;2.97;;;;;11.60;99229.00;;;;5046525;28;20202;-75
2023/01/16 01:16:34;;;;;;;4.25;3.38;;;;;11.60;99224.00;;;;5048849;28;20219;-75
2023/01/16 01:19:01;;;;;;;3.47;2.95;;;;;11.60;99221.00;;;;5046246;28;20214;-75
2023/01/16 01:21:30;;;;;;;3.53;2.95;;;;;11.60;99220.00;;;;5044412;28;20222;-75
2023/01/16 01:23:57;;;;;;;4.15;3.25;;;;;11.60;99211.00;;;;5042498;28;20206;-75
2023/01/16 01:26:24;;;;;;;3.78;3.42;;;;;11.60;99204.00;;;;5043324;28;20218;-75
2023/01/16 01:28:52;;;;;;;4.47;3.15;;;;;11.60;99201.00;;;;5051316;28;20200;-75
2023/01/16 01:31:19;;;;;;;4.88;3.70;;;;;11.60;99192.00;;;;5043501;28;20203;-75
2023/01/16 01:33:46;;;;;;;7.32;4.13;;;;;11.60;99196.00;;;;5044016;28;20199;-75
2023/01/16 01:36:13;;;;;;;3.92;3.25;;;;;11.60;99189.00;;;;5041585;28;20566;-75
2023/01/16 01:38:42;;;;;;;4.60;3.25;;;;;11.60;99181.00;;;;5045152;28;20226;-75
2023/01/16 01:41:13;;;;;;;5.60;3.22;;;;;11.50;99183.00;;;;5061829;28;20199;-75
2023/01/16 01:43:43;;;;;;;4.30;3.50;;;;;11.50;99173.00;;;;5041286;28;20203;-75
2023/01/16 01:46:19;;;;;;;3.72;2.83;;;;;11.40;99173.00;;;;5042324;28;20235;-75
2023/01/16 01:48:49;;;;;;;3.25;2.95;;;;;11.40;99175.00;;;;5042571;28;20222;-74
2023/01/16 01:51:20;;;;;;;4.70;3.03;;;;;11.40;99165.00;;;;5041669;28;20260;-75
2023/01/16 01:53:51;;;;;;;3.90;2.80;;;;;11.40;99168.00;;;;5043189;28;20655;-75
2023/01/16 01:56:22;;;;;;;3.72;2.80;;;;;11.40;99159.00;;;;5040433;28;20219;-75
2023/01/16 01:58:54;;;;;;;5.07;3.33;;;;;11.40;99159.00;;;;5042609;28;20192;-75
2023/01/16 02:01:21;;;;;;;3.53;2.78;;;;;11.40;99152.00;;;;5059086;28;20191;-75
2023/01/16 02:03:52;;;;;;;3.60;2.30;;;;;11.30;99144.00;;;;5048434;28;20199;-75
2023/01/16 02:06:22;;;;;;;4.53;2.53;;;;;11.30;99146.00;;;;5044514;28;20658;-75
2023/01/16 02:08:53;;;;;;;3.53;2.03;;;;;11.30;99139.00;;;;5048733;28;20204;-75
2023/01/16 02:11:26;;;;;;;3.08;1.83;;;;;11.20;99132.00;;;;5049756;28;20191;-75
2023/01/16 02:13:56;;;;;;;3.70;2.63;;;;;11.20;99130.00;;;;5048497;28;20200;-75
2023/01/16 02:19:18;;;;;;;2.65;1.58;;;;;11.10;99131.00;;;;5046386;28;20211;-75
2023/01/16 02:22:05;;;;;;;4.57;1.77;;;;;11.00;99128.00;;;;5045026;28;20214;-75
2023/01/16 02:25:03;;;;;;;2.33;1.85;;;;;10.90;99123.00;;;;5048227;28;20226;-75
2023/01/16 02:27:53;;;;;;;2.33;1.40;;;;;10.90;99113.00;;;;5059250;28;20576;-76
2023/01/16 02:30:39;;;;;;;2.40;1.52;;;;;10.90;99108.00;;;;5063997;28;20497;-76
2023/01/16 02:33:16;;;;;;;3.33;1.38;;;;;10.90;99093.00;;;;5051869;28;20199;-76
2023/01/16 02:35:58;;;;;;;1.48;1.15;;;;;10.90;99089.00;;;;5066734;28;20205;-76
2023/01/16 02:38:38;;;;;;;2.50;1.10;;;;;10.90;99089.00;;;;5066282;28;20211;-76
2023/01/16 02:41:15;;;;;;;1.80;1.10;;;;;10.90;99083.00;;;;5055822;28;20206;-76
2023/01/16 02:43:50;;;;;;;1.85;1.05;;;;;10.80;99087.00;;;;5055579;28;20536;-76
2023/01/16 02:46:25;;;;;;;2.00;1.00;;;;;10.80;99073.00;;;;5053805;28;20231;-76
2023/01/16 02:49:01;;;;;;;2.72;1.15;;;;;10.80;99072.00;;;;5048435;28;20584;-76
2023/01/16 02:51:37;;;;;;;2.97;1.33;;;;;10.80;99067.00;;;;5048787;28;20195;-76
2023/01/16 02:54:10;;;;;;;1.80;0.90;;;;;10.80;99063.00;;;;5045172;28;20195;-76
2023/01/16 02:56:42;;;;;;;2.75;1.40;;;;;10.80;99051.00;;;;5046755;28;20226;-75
2023/01/16 02:59:11;;;;;;;2.55;0.90;;;;;10.80;99048.00;;;;5045354;28;20204;-76
2023/01/16 03:01:40;;;;;;;4.55;1.02;;;;;10.80;99035.00;;;;5047175;28;20206;-76
2023/01/16 03:04:49;;;;;;;2.47;1.08;;;;;10.70;99028.00;;;;5047041;28;20203;-76
2023/01/16 03:07:48;;;;;;;3.17;1.00;;;;;10.70;99010.00;;;;5017126;28;20203;-76
2023/01/16 03:10:41;;;;;;;1.45;0.80;;;;;10.70;99000.00;;;;5045415;28;20203;-76
2023/01/16 03:13:23;;;;;;;1.20;0.52;;;;;10.60;98989.00;;;;5047223;28;20206;-76
2023/01/16 03:16:01;;;;;;;1.80;0.63;;;;;10.70;98990.00;;;;5047229;28;20207;-76
2023/01/16 03:18:37;;;;;;;1.52;0.50;;;;;10.60;98978.00;;;;5045783;28;20195;-76
2023/01/16 03:21:10;;;;;;;1.40;0.77;;;;;10.70;98974.00;;;;5052485;28;20190;-76
2023/01/16 03:23:52;;;;;;;1.55;0.50;;;;;10.60;98975.00;;;;5068804;28;20532;-76
2023/01/16 03:26:26;;;;;;;2.42;0.60;;;;;10.60;98967.00;;;;5068681;28;20202;-76
2023/01/16 03:29:01;;;;;;;3.55;0.80;;;;;10.60;98958.00;;;;5060578;28;20199;-76
2023/01/16 03:31:36;;;;;;;1.27;0.73;;;;;10.60;98959.00;;;;5050997;28;20209;-76
2023/01/16 03:34:12;;;;;;;2.95;0.70;;;;;10.60;98958.00;;;;5046091;28;20214;-76
2023/01/16 03:36:47;;;;;;;1.23;0.40;;;;;10.50;98946.00;;;;5047523;28;20260;-76
2023/01/16 03:39:21;;;;;;;2.65;0.47;;;;;10.50;98943.00;;;;5064358;28;20215;-76
2023/01/16 03:41:52;;;;;;;3.13;0.95;;;;;10.50;98942.00;;;;5068985;28;20213;-76
2023/01/16 03:44:26;;;;;;;1.27;0.40;;;;;10.50;98930.00;;;;5070369;28;20570;-76
2023/01/16 03:46:54;;;;;;;1.27;0.60;;;;;10.50;98914.00;;;;5066457;28;20242;-76
2023/01/16 03:49:25;;;;;;;1.02;0.47;;;;;10.50;98916.00;;;;5058522;28;20203;-76
2023/01/16 03:51:58;;;;;;;2.00;0.40;;;;;10.50;98908.00;;;;5059831;28;20215;-76
2023/01/16 03:54:35;;;;;;;4.18;0.50;;;;;10.40;98900.00;;;;5044917;28;20196;-76
2023/01/16 03:57:09;;;;;;;2.35;0.60;;;;;10.40;98891.00;;;;5048376;28;21238;-76
2023/01/16 03:59:38;;;;;;;2.10;0.40;;;;;10.50;98886.00;;;;5045516;28;20191;-76
2023/01/16 04:02:12;;;;;;;2.92;0.50;;;;;10.50;98871.00;;;;5044868;28;20661;-76
2023/01/16 04:04:45;;;;;;;2.05;0.60;;;;;10.50;98870.00;;;;5045296;28;20206;-76
2023/01/16 04:07:20;;;;;;;1.95;0.50;;;;;10.50;98867.00;;;;5046125;28;20206;-76
2023/01/16 04:09:52;;;;;;;1.83;0.50;;;;;10.40;98863.00;;;;5050421;28;20195;-76
2023/01/16 04:12:23;;;;;;;0.77;0.50;;;;;10.50;98863.00;;;;5070899;28;20210;-76
2023/01/16 04:14:54;;;;;;;1.48;0.50;;;;;10.50;98845.00;;;;5066841;28;20205;-76
2023/01/16 04:17:23;;;;;;;2.47;1.05;;;;;10.50;98839.00;;;;5049712;28;20219;-76
2023/01/16 04:19:50;;;;;;;1.95;0.40;;;;;10.50;98826.00;;;;5047163;28;20203;-76
2023/01/16 04:22:22;;;;;;;0.90;0.43;;;;;10.40;98826.00;;;;5045519;28;20202;-76
2023/01/16 04:24:52;;;;;;;2.67;0.60;;;;;10.50;98819.00;;;;5043472;28;20207;-76
2023/01/16 04:27:20;;;;;;;1.70;0.60;;;;;10.50;98812.00;;;;5044790;28;20206;-75
2023/01/16 04:29:47;;;;;;;1.70;0.50;;;;;10.50;98804.00;;;;5044612;28;20692;-76
2023/01/16 04:32:15;;;;;;;2.88;0.82;;;;;10.50;98791.00;;;;5047875;28;20199;-76
2023/01/16 04:34:42;;;;;;;0.95;0.47;;;;;10.50;98785.00;;;;5044620;28;20444;-76
2023/01/16 04:37:12;;;;;;;3.03;0.90;;;;;10.50;98774.00;;;;5058427;28;20227;-76
2023/01/16 04:39:40;;;;;;;2.25;0.70;;;;;10.50;98764.00;;;;5050144;28;20223;-76
2023/01/16 04:42:09;;;;;;;2.05;0.47;;;;;10.40;98745.00;;;;5049645;28;20214;-76
2023/01/16 04:44:36;;;;;;;1.83;0.60;;;;;10.50;98738.00;;;;5049145;28;20188;-75
2023/01/16 04:47:04;;;;;;;2.42;0.60;;;;;10.50;98736.00;;;;5051142;28;20223;-76
2023/01/16 04:49:31;;;;;;;1.63;0.38;;;;;10.40;98726.00;;;;5045772;28;20207;-76
2023/01/16 04:51:58;;;;;;;1.38;0.43;;;;;10.40;98719.00;;;;5042714;28;20196;-75
2023/01/16 04:54:26;;;;;;;1.70;0.40;;;;;10.40;98710.00;;;;5044367;28;20524;-75
2023/01/16 04:56:53;;;;;;;0.68;0.43;;;;;10.40;98691.00;;;;5048440;28;20236;-76
2023/01/16 04:59:22;;;;;;;2.45;0.63;;;;;10.40;98688.00;;;;5045193;28;20207;-76
2023/01/16 05:01:49;;;;;;;2.30;0.50;;;;;10.40;98684.00;;;;5042204;28;20218;-76
2023/01/16 05:04:18;;;;;;;2.55;0.77;;;;;10.40;98679.00;;;;5047338;28;20190;-76
2023/01/16 05:06:45;;;;;;;2.25;0.32;;;;;10.40;98673.00;;;;5047865;28;20228;-76
2023/01/16 05:09:12;;;;;;;3.13;0.68;;;;;10.40;98664.00;;;;5052882;28;20672;-76
2023/01/16 05:11:40;;;;;;;1.40;0.55;;;;;10.40;98662.00;;;;5049865;28;20210;-76
2023/01/16 05:14:10;;;;;;;2.45;0.60;;;;;10.40;98656.00;;;;5058269;28;20198;-76
2023/01/16 05:16:41;;;;;;;1.13;0.40;;;;;10.40;98649.00;;;;5055712;28;20636;-76
2023/01/16 05:19:09;;;;;;;2.92;0.63;;;;;10.40;98650.00;;;;5055568;28;20277;-76
2023/01/16 05:21:37;;;;;;;1.58;0.47;;;;;10.40;98636.00;;;;5059415;28;20198;-76
2023/01/16 05:24:05;;;;;;;1.83;0.63;;;;;10.40;98629.00;;;;5050706;28;20421;-76
2023/01/16 05:26:32;;;;;;;1.45;0.60;;;;;10.40;98622.00;;;;5048046;28;20206;-76
2023/01/16 05:28:59;;;;;;;3.15;0.75;;;;;10.40;98616.00;;;;5045229;28;20209;-76
2023/01/16 05:31:27;;;;;;;1.45;0.50;;;;;10.40;98598.00;;;;5045450;28;20606;-76
2023/01/16 05:33:55;;;;;;;1.17;0.50;;;;;10.40;98594.00;;;;5042704;28;20586;-76
2023/01/16 05:36:22;;;;;;;4.50;1.05;;;;;10.40;98580.00;;;;5045595;28;20500;-76
2023/01/16 05:38:50;;;;;;;3.10;0.60;;;;;10.40;98579.00;;;;5048180;28;20212;-76
2023/01/16 05:41:18;;;;;;;2.13;0.90;;;;;10.40;98568.00;;;;5046924;28;20191;-76
2023/01/16 05:43:45;;;;;;;1.33;0.50;;;;;10.40;98559.00;;;;5047132;28;20202;-76
2023/01/16 05:46:12;;;;;;;1.40;0.57;;;;;10.50;98543.00;;;;5053099;28;20238;-76
2023/01/16 05:48:40;;;;;;;2.15;1.00;;;;;10.50;98538.00;;;;5054647;28;20199;-75
2023/01/16 05:51:08;;;;;;;3.10;0.70;;;;;10.50;98522.00;;;;5048208;28;20191;-76
2023/01/16 05:53:36;;;;;;;2.60;0.47;;;;;10.50;98519.00;;;;5047956;28;20208;-76
2023/01/16 05:56:08;;;;;;;3.35;0.75;;;;;10.50;98516.00;;;;5053909;28;20199;-76
2023/01/16 05:58:36;;;;;;;0.85;0.50;;;;;10.50;98508.00;;;;5062146;28;20222;-76
2023/01/16 06:01:03;;;;;;;1.77;0.65;;;;;10.60;98491.00;;;;5050741;28;20685;-76
2023/01/16 06:03:30;;;;;;;0.70;0.50;;;;;10.60;98478.00;;;;5055081;28;20191;-75
2023/01/16 06:05:58;;;;;;;1.23;0.68;;;;;10.60;98468.00;;;;5055289;28;20230;-76
2023/01/16 06:08:27;;;;;;;1.95;0.40;;;;;10.60;98464.00;;;;5058065;28;20208;-76
2023/01/16 06:10:54;;;;;;;2.35;0.68;;;;;10.70;98460.00;;;;5053489;28;20199;-75
2023/01/16 06:13:22;;;;;;;2.22;0.75;;;;;10.70;98451.00;;;;5051194;28;20191;-76
2023/01/16 06:15:49;;;;;;;2.35;0.50;;;;;10.70;98449.00;;;;5051563;28;20199;-76
2023/01/16 06:18:16;;;;;;;1.52;0.68;;;;;10.80;98445.00;;;;5056234;28;20226;-76
2023/01/16 06:20:44;;;;;;;2.70;0.70;;;;;10.80;98436.00;;;;5059942;28;20642;-76
2023/01/16 06:23:11;;;;;;;1.48;0.55;;;;;10.80;98429.00;;;;5059678;28;20202;-76
2023/01/16 06:25:40;;;;;;;1.77;0.70;;;;;10.90;98425.00;;;;5053208;28;20191;-76
2023/01/16 06:28:07;;;;;;;3.58;0.70;;;;;10.90;98421.00;;;;5048108;28;20207;-76
2023/01/16 06:30:35;;;;;;;0.88;0.60;;;;;10.90;98417.00;;;;5047878;28;20207;-76
2023/01/16 06:33:02;;;;;;;2.30;0.65;;;;;10.90;98407.00;;;;5050067;28;20655;-76
2023/01/16 06:35:29;;;;;;;1.80;0.82;;;;;10.90;98411.00;;;;5067495;28;20191;-76
2023/01/16 06:37:56;;;;;;;1.35;0.60;;;;;10.90;98398.00;;;;5066925;28;20227;-77
2023/01/16 06:40:23;;;;;;;2.72;0.95;;;;;11.00;98393.00;;;;5051292;28;20199;-76
2023/01/16 06:42:52;;;;;;;0.68;0.60;;;;;11.00;98401.00;;;;5048070;28;20211;-76
2023/01/16 06:45:21;;;;;;;2.78;0.60;;;;;11.00;98397.00;;;;5060341;28;20222;-77
2023/01/16 06:47:52;;;;;;;1.58;0.65;;;;;11.00;98385.00;;;;5068626;28;20622;-76
2023/01/16 06:50:20;;;;;;;1.52;0.57;;;;;11.10;98380.00;;;;5071352;28;20698;-77
2023/01/16 06:52:48;;;;;;;3.92;0.70;;;;;11.10;98380.00;;;;5069243;28;20203;-77
2023/01/16 06:55:15;;;;;;;1.42;0.80;;;;;11.10;98365.00;;;;5071136;28;20191;-77
2023/01/16 06:57:42;;;;;;;1.02;0.60;;;;;11.10;98371.00;;;;5062372;28;20226;-78
2023/01/16 07:00:13;;;;;;;1.25;0.52;;;;;11.10;98360.00;;;;5062554;28;20198;-78
2023/01/16 07:02:41;;;;;;;2.63;0.57;;;;;11.10;98356.00;;;;5050764;28;20196;-77
2023/01/16 07:05:09;;;;;;;2.30;0.65;;;;;11.10;98357.00;;;;5051092;28;20204;-78
2023/01/16 07:07:37;;;;;;;3.58;1.02;;;;;11.10;98342.00;;;;5050351;28;20204;-78
2023/01/16 07:10:05;;;;;;;3.30;0.73;;;;;11.10;98333.00;;;;5050606;28;20260;-78
2023/01/16 07:12:32;;;;;;;1.88;0.70;;;;;11.10;98328.00;;;;5050081;28;20192;-78
2023/01/16 07:23:37;;;;;;;0.70;0.35;;;;;11.00;98300.00;;;;4996530;28;20216;-78
2023/01/16 07:26:08;;;;;;;1.13;0.38;;;;;11.00;98299.00;;;;5033728;28;20201;-77
2023/01/16 07:28:35;;;;;;;0.22;0.13;;;;;11.00;98285.00;;;;5049703;28;20210;-78
2023/01/16 07:31:05;;;;;;;0.82;0.47;;;;;11.00;98273.00;;;;5050154;28;20211;-78
2023/01/16 07:33:33;;;;;;;1.35;0.38;;;;;11.00;98266.00;;;;5050626;28;20261;-78
2023/01/16 07:36:01;;;;;;;0.57;0.30;;;;;11.00;98257.00;;;;5050953;28;20216;-78
2023/01/16 07:38:28;;;;;;;0.95;0.40;;;;;11.00;98252.00;;;;5050342;28;20228;-78
2023/01/16 07:40:55;;;;;;;1.48;0.20;;;;;11.00;98231.00;;;;5050526;28;20192;-79
2023/01/16 07:43:23;;;;;;;1.02;0.22;;;;;11.00;98223.00;;;;5058413;28;20195;-79
2023/01/16 07:45:52;;;;;;;0.50;0.20;;;;;11.00;98210.00;;;;5066375;28;20231;-78
2023/01/16 07:48:20;;;;;;;1.80;0.25;;;;;11.00;98209.00;;;;5064153;28;20206;-79
2023/01/16 07:50:52;;;;;;;1.42;0.50;;;;;10.90;98188.00;;;;5050690;28;20246;-79
2023/01/16 07:53:22;;;;;;;1.83;0.35;;;;;10.90;98182.00;;;;5050891;28;20265;-79
2023/01/16 07:55:49;;;;;;;1.00;0.35;;;;;10.90;98181.00;;;;5049642;28;20405;-79
2023/01/16 07:58:17;;;;;;;1.88;0.50;;;;;10.90;98175.00;;;;5050054;28;20235;-78
2023/01/16 08:00:44;;;;;;;1.98;0.30;;;;;10.90;98166.00;;;;5050240;28;20231;-79
2023/01/16 08:03:12;;;;;;;1.20;0.47;;;;;10.90;98157.00;;;;5050085;28;20211;-79
2023/01/16 08:05:39;;;;;;;1.70;0.30;;;;;10.90;98148.00;;;;5054509;28;20199;-79
2023/01/16 08:08:08;;;;;;;1.23;0.77;;;;;10.90;98143.00;;;;5050028;28;20199;-78
2023/01/16 08:10:36;;;;;;;1.40;0.88;;;;;10.90;98133.00;;;;5050405;28;20199;-79
2023/01/16 08:13:03;;;;;;;1.13;0.63;;;;;10.90;98119.00;;;;5053562;28;20215;-79
2023/01/16 08:15:31;;;;;;;1.08;0.40;;;;;10.90;98112.00;;;;5052967;28;20200;-78
2023/01/16 08:17:58;;;;;;;1.42;0.50;;;;;11.00;98102.00;;;;5053592;28;20215;-81
2023/01/16 08:20:25;;;;;;;0.75;0.38;;;;;11.00;98103.00;;;;5068558;28;20203;-77
2023/01/16 08:22:55;;;;;;;1.25;0.38;;;;;11.00;98089.00;;;;5060934;28;20522;-78
2023/01/16 08:25:24;;;;;;;1.83;0.40;;;;;10.90;98086.00;;;;5054283;28;20241;-78
2023/01/16 08:27:52;;;;;;;0.60;0.30;;;;;10.90;98082.00;;;;5054010;28;20560;-78
2023/01/16 08:30:20;;;;;;;1.45;0.70;;;;;11.00;98078.00;;;;5056796;28;20207;-78
2023/01/16 08:32:49;;;;;;;1.10;0.38;;;;;11.00;98067.00;;;;5063357;28;20657;-78
2023/01/16 08:35:16;;;;;;;0.85;0.43;;;;;11.00;98062.00;;;;5069877;28;20194;-79
2023/01/16 08:37:49;;;;;;;2.22;0.93;;;;;10.90;98058.00;;;;5068202;28;20700;-78
2023/01/16 08:40:17;;;;;;;0.70;0.30;;;;;11.00;98052.00;;;;5068745;28;20222;-79
2023/01/16 08:51:24;;;;;;;1.52;0.50;;;;;11.00;98026.00;;;;5056595;28;20297;-79
2023/01/16 08:53:52;;;;;;;3.03;0.63;;;;;11.00;98024.00;;;;5069137;28;20240;-78
2023/01/16 08:56:20;;;;;;;0.60;0.40;;;;;11.00;98008.00;;;;5052414;28;20199;-79
2023/01/16 08:58:48;;;;;;;1.42;0.50;;;;;11.00;97994.00;;;;5049513;28;20223;-79
2023/01/16 09:01:16;;;;;;;2.17;0.40;;;;;11.00;97993.00;;;;5048229;28;20294;-79
2023/01/16 09:03:44;;;;;;;1.05;0.60;;;;;11.00;97990.00;;;;5049152;28;20207;-78
2023/01/16 09:06:11;;;;;;;1.38;0.70;;;;;11.00;97996.00;;;;5050065;28;20196;-78
2023/01/16 09:08:38;;;;;;;0.63;0.40;;;;;11.10;97989.00;;;;5048628;28;20206;-79
2023/01/16 09:13:52;;;;;;;1.15;0.55;;;;;11.00;97986.00;;;;5049183;28;20222;-80
2023/01/16 09:16:20;;;;;;;1.75;0.77;;;;;11.10;97985.00;;;;5049465;28;20207;-79
2023/01/16 09:18:48;;;;;;;1.33;0.55;;;;;11.10;97977.00;;;;5060645;28;20226;-79
2023/01/16 09:21:18;;;;;;;1.42;0.88;;;;;11.10;97966.00;;;;5058921;28;20215;-78
2023/01/16 09:23:45;;;;;;;1.08;0.77;;;;;11.10;97957.00;;;;5047812;28;20622;-79
2023/01/16 09:26:13;;;;;;;2.38;0.50;;;;;11.10;97950.00;;;;5048549;28;20204;-80
2023/01/16 09:28:41;;;;;;;2.03;0.85;;;;;11.10;97953.00;;;;5051706;28;20206;-78
2023/01/16 09:31:09;;;;;;;1.83;1.00;;;;;11.10;97951.00;;;;5053061;28;20188;-79
2023/01/16 09:33:37;;;;;;;1.13;0.75;;;;;11.10;97953.00;;;;5053031;28;20206;-78
2023/01/16 09:36:05;;;;;;;1.25;0.70;;;;;11.10;97942.00;;;;5067561;28;20238;-79
2023/01/16 09:38:32;;;;;;;1.05;0.60;;;;;11.10;97935.00;;;;5067835;28;20229;-77
2023/01/16 09:41:01;;;;;;;0.98;0.70;;;;;11.20;97940.00;;;;5068146;28;20203;-78
2023/01/16 09:43:37;;;;;;;2.22;0.70;;;;;11.10;97927.00;;;;5067932;28;20214;-79
2023/01/16 09:46:10;;;;;;;1.52;0.88;;;;;11.10;97928.00;;;;5060323;28;20688;-78
2023/01/16 09:48:45;;;;;;;1.42;0.65;;;;;11.20;97928.00;;;;5047617;28;20199;-77
2023/01/16 09:51:17;;;;;;;1.30;0.75;;;;;11.20;97928.00;;;;5048952;28;20198;-77
2023/01/16 09:59:33;;;;;;;1.63;0.60;;;;;11.20;97910.00;;;;5047040;28;20265;-79
2023/01/16 10:02:21;;;;;;;1.40;0.70;;;;;11.10;97901.00;;;;5047896;28;20550;-76
2023/01/16 10:04:49;;;;;;;1.98;0.40;;;;;11.30;97908.00;;;;5047496;28;20191;-77
2023/01/16 10:07:46;;;;;;;2.78;0.63;;;;;11.10;97914.00;;;;5059641;28;20202;-77
2023/01/16 10:10:34;;;;;;;1.70;0.50;;;;;11.20;97904.00;;;;5043184;28;20211;-77
2023/01/16 10:13:15;;;;;;;0.82;0.60;;;;;11.20;97909.00;;;;5047558;28;20297;-78
2023/01/16 10:15:49;;;;;;;0.63;0.40;;;;;11.30;97906.00;;;;5048217;28;20199;-78
2023/01/16 10:18:30;;;;;;;1.27;0.47;;;;;11.20;97898.00;;;;5048057;28;20222;-78
2023/01/16 10:21:22;;;;;;;1.30;0.57;;;;;11.20;97894.00;;;;5048324;28;20200;-78
2023/01/16 10:23:55;;;;;;;0.75;0.57;;;;;11.30;97892.00;;;;5051785;28;20599;-78
2023/01/16 10:26:28;;;;;;;0.95;0.50;;;;;11.30;97891.00;;;;5062723;28;20456;-78
2023/01/16 10:29:06;;;;;;;1.50;0.95;;;;;11.20;97869.00;;;;5064910;28;20196;-78
2023/01/16 10:31:39;;;;;;;1.83;0.70;;;;;11.30;97864.00;;;;5050828;28;20203;-78
2023/01/16 10:34:15;;;;;;;1.95;0.88;;;;;11.30;97858.00;;;;5051189;28;20685;-78
2023/01/16 10:36:48;;;;;;;2.05;1.42;;;;;11.30;97858.00;;;;5057020;28;20198;-78
2023/01/16 10:39:18;;;;;;;1.92;1.63;;;;;11.30;97850.00;;;;5059950;28;20716;-78
2023/01/16 10:50:12;;;;;;;1.00;0.70;;;;;11.30;97832.00;;;;5065091;28;20209;-78
2023/01/16 10:52:40;;;;;;;1.02;0.60;;;;;11.30;97832.00;;;;5054318;28;20203;-79
2023/01/16 10:55:09;;;;;;;2.35;0.60;;;;;11.30;97834.00;;;;5051919;28;20666;-79
2023/01/16 10:57:40;;;;;;;0.55;0.47;;;;;11.30;97820.00;;;;5051388;28;20211;-78
2023/01/16 11:00:14;;;;;;;0.52;0.40;;;;;11.30;97813.00;;;;5051988;28;20219;-79
2023/01/16 11:02:46;;;;;;;0.25;0.25;;;;;11.40;97809.00;;;;5066884;28;20198;-78
2023/01/16 11:05:29;;;;;;;0.55;0.38;;;;;11.30;97812.00;;;;5065600;28;20199;-78
2023/01/16 11:08:02;;;;;;;1.33;0.28;;;;;11.40;97802.00;;;;5051128;28;20208;-78
2023/01/16 11:10:30;;;;;;;0.70;0.32;;;;;11.40;97797.00;;;;5050783;28;20208;-78
2023/01/16 11:18:48;;;;;;;0.70;0.40;;;;;11.50;97773.00;;;;5070851;28;20226;-78
2023/01/16 11:21:26;;;;;;;1.38;0.57;;;;;11.50;97771.00;;;;5058821;28;20196;-78
2023/01/16 11:23:59;;;;;;;0.70;0.35;;;;;11.50;97749.00;;;;5050641;28;20208;-77
2023/01/16 11:26:27;;;;;;;1.17;0.50;;;;;11.60;97744.00;;;;5062144;28;20622;-77
2023/01/16 11:28:57;;;;;;;0.80;0.60;;;;;11.70;97747.00;;;;5056501;28;20208;-78
2023/01/16 11:31:30;;;;;;;0.60;0.50;;;;;11.80;97745.00;;;;5050636;28;20196;-77
2023/01/16 11:34:01;;;;;;;0.60;0.30;;;;;11.90;97732.00;;;;5062666;28;20692;-77
2023/01/16 11:36:33;;;;;;;0.65;0.43;;;;;12.00;97732.00;;;;5070342;28;20195;-77
2023/01/16 11:39:01;;;;;;;0.75;0.70;;;;;12.10;97725.00;;;;5052638;28;20236;-77
2023/01/16 11:41:32;;;;;;;0.50;0.35;;;;;12.20;97721.00;;;;5050298;28;20220;-78
2023/01/16 11:47:01;;;;;;;0.70;0.50;;;;;12.30;97714.00;;;;5049527;28;20239;-77
2023/01/16 11:49:34;;;;;;;0.80;0.38;;;;;12.30;97707.00;;;;5048616;28;20191;-78
2023/01/16 11:52:03;;;;;;;0.60;0.43;;;;;12.30;97703.00;;;;5050157;28;20196;-78
2023/01/16 11:54:33;;;;;;;1.20;0.60;;;;;12.40;97705.00;;;;5049795;28;20203;-78
2023/01/16 11:57:27;;;;;;;1.17;0.52;;;;;12.30;97698.00;;;;5049528;28;20214;-78
2023/01/16 12:00:09;;;;;;;0.60;0.30;;;;;12.40;97695.00;;;;5047256;28;20234;-78
2023/01/16 12:03:01;;;;;;;1.55;0.30;;;;;12.40;97687.00;;;;5049962;28;20736;-78
2023/01/16 12:05:54;;;;;;;0.45;0.25;;;;;12.40;97684.00;;;;5049251;28;20206;-77
2023/01/16 12:08:41;;;;;;;0.85;0.43;;;;;12.40;97673.00;;;;5049549;28;20273;-77
2023/01/16 12:11:12;;;;;;;0.70;0.40;;;;;12.40;97671.00;;;;5049680;28;20198;-78
2023/01/16 12:16:41;;;;;;;0.50;0.30;;;;;12.40;97654.00;;;;5038866;28;20740;-77
2023/01/16 12:19:29;;;;;;;0.50;0.40;;;;;12.30;97643.00;;;;5049970;28;20227;-78
2023/01/16 12:22:05;;;;;;;0.40;0.30;;;;;12.40;97645.00;;;;5049322;28;20212;-78
2023/01/16 12:24:44;;;;;;;0.73;0.22;;;;;12.30;97638.00;;;;5049619;28;20222;-77
2023/01/16 12:27:23;;;;;;;0.43;0.30;;;;;12.30;97641.00;;;;5049117;28;20596;-78
2023/01/16 12:30:01;;;;;;;0.68;0.32;;;;;12.30;97624.00;;;;5049067;28;20673;-77
2023/01/16 12:32:42;;;;;;;0.50;0.25;;;;;12.40;97630.00;;;;5050323;28;20195;-77
2023/01/16 12:35:34;;;;;;;0.52;0.20;;;;;12.30;97619.00;;;;5056351;28;20290;-78
2023/01/16 12:38:11;;;;;;;0.30;0.28;;;;;12.40;97614.00;;;;5048496;28;20203;-77
2023/01/16 12:40:53;;;;;;;0.82;0.50;;;;;12.40;97609.00;;;;5049683;28;20592;-78
2023/01/16 12:43:29;;;;;;;0.70;0.50;;;;;12.40;97607.00;;;;5049317;28;20196;-77
2023/01/16 12:45:59;;;;;;;0.65;0.50;;;;;12.40;97605.00;;;;5049142;28;20326;-77
2023/01/16 12:48:43;;;;;;;1.10;0.50;;;;;12.40;97605.00;;;;5068833;28;20198;-77
2023/01/16 12:51:34;;;;;;;0.52;0.28;;;;;12.40;97603.00;;;;5049481;28;20207;-77
2023/01/16 12:54:29;;;;;;;0.32;0.30;;;;;12.40;97603.00;;;;5063163;28;20207;-78
2023/01/16 12:57:10;;;;;;;0.75;0.47;;;;;12.40;97588.00;;;;5069464;28;20207;-78
2023/01/16 12:59:42;;;;;;;0.52;0.30;;;;;12.50;97592.00;;;;5061830;28;20226;-78
2023/01/16 13:02:21;;;;;;;0.70;0.40;;;;;12.50;97585.00;;;;5049142;28;20205;-77
2023/01/16 13:04:54;;;;;;;0.73;0.40;;;;;12.60;97577.00;;;;5054201;28;20191;-77
2023/01/16 13:07:23;;;;;;;0.60;0.40;;;;;12.60;97577.00;;;;5057184;28;20208;-77
2023/01/16 13:13:20;;;;;;;2.40;0.43;;;;;12.60;97573.00;;;;5052594;28;20329;-77
2023/01/16 13:15:35;;;;;;;0.38;0.30;;;;;12.70;97567.00;;;;5061066;28;20206;-77
2023/01/16 13:18:09;;;;;;;0.68;0.40;;;;;12.70;97564.00;;;;5048554;28;20200;-77
2023/01/16 13:20:37;;;;;;;0.38;0.30;;;;;12.70;97561.00;;;;5061497;28;20744;-76
2023/01/16 13:23:12;;;;;;;1.10;0.40;;;;;12.70;97563.00;;;;5068086;28;20199;-77
2023/01/16 13:25:43;;;;;;;0.60;0.30;;;;;12.70;97554.00;;;;5049279;28;20195;-76
2023/01/16 13:28:20;;;;;;;0.45;0.32;;;;;12.70;97550.00;;;;5065596;28;20202;-78
2023/01/16 13:30:48;;;;;;;0.20;0.20;;;;;12.70;97543.00;;;;5048549;28;20199;-78